Shekhupura, Pakistan
Current Conditions -  °F | °C
As of 3:55 PM on Monday 20 Oct 2014 (Local Time) from OPLA Reporting Station
Clear Clear  
Wind Chill: 32°   Ceiling: Unl
Heat Index: 32°   Visibility: 4mi
Dew Point: 13°   Wind: 9mph
Humidity: 31%   Direction: 290°WNW
Pressure: NA   Gusts: NA
Location:  31.72°N, 73.98°E
Report Text: OPLA 201055Z 29008KT 6000 NSC 32/13 Q1013/A29.92 NOSIG
Loading
Personal Weather Stations






























Interactive Weather Map
Tropical Storm Tracking
New forecast layout! Learn more

10-Day Weather Forecast

Advertisements
Track Severe Weather on mobile